sensor_id;sensor_type;location;lat;lon;timestamp;pressure;altitude;pressure_sealevel;temperature;humidity
28630;BME280;15817;42.130;24.762;2023-07-16T00:01:45;99951.59;;;28.92;57.71
28630;BME280;15817;42.130;24.762;2023-07-16T00:04:16;99952.47;;;28.92;57.90
28630;BME280;15817;42.130;24.762;2023-07-16T00:06:42;99958.19;;;29.00;57.56
28630;BME280;15817;42.130;24.762;2023-07-16T00:09:32;99958.41;;;28.86;57.86
28630;BME280;15817;42.130;24.762;2023-07-16T00:12:07;99964.41;;;28.80;58.30
28630;BME280;15817;42.130;24.762;2023-07-16T00:14:36;99960.22;;;28.74;58.29
28630;BME280;15817;42.130;24.762;2023-07-16T00:17:11;99959.09;;;28.66;58.66
28630;BME280;15817;42.130;24.762;2023-07-16T00:19:42;99963.72;;;28.65;58.84
28630;BME280;15817;42.130;24.762;2023-07-16T00:22:18;99956.13;;;28.69;58.23
28630;BME280;15817;42.130;24.762;2023-07-16T00:24:47;99964.69;;;28.64;58.41
28630;BME280;15817;42.130;24.762;2023-07-16T00:27:14;99959.00;;;28.67;58.40
28630;BME280;15817;42.130;24.762;2023-07-16T00:29:44;99971.16;;;28.63;58.36
28630;BME280;15817;42.130;24.762;2023-07-16T00:32:17;99964.19;;;28.48;58.91
28630;BME280;15817;42.130;24.762;2023-07-16T00:34:49;99967.94;;;28.58;58.57
28630;BME280;15817;42.130;24.762;2023-07-16T00:37:20;99970.16;;;28.53;58.34
28630;BME280;15817;42.130;24.762;2023-07-16T00:40:10;99964.25;;;28.35;59.05
28630;BME280;15817;42.130;24.762;2023-07-16T00:46:21;99980.41;;;28.38;59.20
28630;BME280;15817;42.130;24.762;2023-07-16T00:48:52;99976.03;;;28.25;59.56
28630;BME280;15817;42.130;24.762;2023-07-16T00:51:29;99972.06;;;28.29;59.62
28630;BME280;15817;42.130;24.762;2023-07-16T00:54:10;99968.81;;;28.24;59.51
28630;BME280;15817;42.130;24.762;2023-07-16T00:56:43;99967.19;;;28.21;59.60
28630;BME280;15817;42.130;24.762;2023-07-16T00:59:14;99958.78;;;28.35;59.33
28630;BME280;15817;42.130;24.762;2023-07-16T01:01:40;99957.44;;;28.17;59.77
28630;BME280;15817;42.130;24.762;2023-07-16T01:04:16;99960.84;;;28.21;60.13
28630;BME280;15817;42.130;24.762;2023-07-16T01:07:04;99960.63;;;28.24;60.17
28630;BME280;15817;42.130;24.762;2023-07-16T01:09:41;99962.28;;;28.14;60.34
28630;BME280;15817;42.130;24.762;2023-07-16T01:12:15;99960.63;;;28.24;59.98
28630;BME280;15817;42.130;24.762;2023-07-16T01:14:42;99966.84;;;28.26;60.08
28630;BME280;15817;42.130;24.762;2023-07-16T01:17:12;99965.03;;;28.14;60.45
28630;BME280;15817;42.130;24.762;2023-07-16T01:19:38;99958.38;;;28.05;60.65
28630;BME280;15817;42.130;24.762;2023-07-16T01:30:41;99968.81;;;28.00;61.02
28630;BME280;15817;42.130;24.762;2023-07-16T01:33:13;99963.91;;;27.92;61.24
28630;BME280;15817;42.130;24.762;2023-07-16T01:35:43;99976.47;;;27.95;61.26
28630;BME280;15817;42.130;24.762;2023-07-16T01:38:47;99979.31;;;27.93;61.53
28630;BME280;15817;42.130;24.762;2023-07-16T01:41:17;99971.81;;;27.84;61.98
28630;BME280;15817;42.130;24.762;2023-07-16T01:43:46;99968.00;;;27.87;61.57
28630;BME280;15817;42.130;24.762;2023-07-16T01:46:17;99970.41;;;27.91;61.38
28630;BME280;15817;42.130;24.762;2023-07-16T01:48:52;99978.44;;;27.93;61.63
28630;BME280;15817;42.130;24.762;2023-07-16T01:51:23;99969.22;;;27.83;62.08
28630;BME280;15817;42.130;24.762;2023-07-16T01:53:54;99987.72;;;27.79;62.08
28630;BME280;15817;42.130;24.762;2023-07-16T01:56:28;99981.03;;;27.83;62.35
28630;BME280;15817;42.130;24.762;2023-07-16T01:59:05;99972.81;;;27.83;62.34
28630;BME280;15817;42.130;24.762;2023-07-16T02:01:36;99978.81;;;27.88;61.92
28630;BME280;15817;42.130;24.762;2023-07-16T02:04:20;99976.34;;;27.72;62.48
28630;BME280;15817;42.130;24.762;2023-07-16T02:29:34;99983.84;;;27.58;63.77
28630;BME280;15817;42.130;24.762;2023-07-16T02:32:08;99984.72;;;27.58;63.43
28630;BME280;15817;42.130;24.762;2023-07-16T02:34:45;99986.03;;;27.53;63.79
28630;BME280;15817;42.130;24.762;2023-07-16T02:37:17;99991.81;;;27.48;63.96
28630;BME280;15817;42.130;24.762;2023-07-16T02:39:45;99998.16;;;27.49;64.36
28630;BME280;15817;42.130;24.762;2023-07-16T02:42:14;99994.78;;;27.45;64.64
28630;BME280;15817;42.130;24.762;2023-07-16T02:44:52;100003.53;;;27.37;64.79
28630;BME280;15817;42.130;24.762;2023-07-16T02:47:24;99999.63;;;27.16;65.44
28630;BME280;15817;42.130;24.762;2023-07-16T02:49:57;99988.41;;;27.08;66.18
28630;BME280;15817;42.130;24.762;2023-07-16T02:52:38;99992.53;;;27.14;65.82
28630;BME280;15817;42.130;24.762;2023-07-16T02:55:12;99994.72;;;27.21;65.55
28630;BME280;15817;42.130;24.762;2023-07-16T02:57:54;99998.19;;;27.23;65.50
28630;BME280;15817;42.130;24.762;2023-07-16T03:01:05;100003.34;;;27.28;65.52
28630;BME280;15817;42.130;24.762;2023-07-16T03:03:33;100002.81;;;27.23;65.51
28630;BME280;15817;42.130;24.762;2023-07-16T03:06:28;99995.16;;;27.15;66.16
28630;BME280;15817;42.130;24.762;2023-07-16T03:09:29;100001.06;;;27.22;65.91
28630;BME280;15817;42.130;24.762;2023-07-16T03:52:03;100027.00;;;26.89;69.69
28630;BME280;15817;42.130;24.762;2023-07-16T04:38:22;100055.97;;;26.92;68.90
28630;BME280;15817;42.130;24.762;2023-07-16T04:57:10;100060.13;;;26.85;68.34
28630;BME280;15817;42.130;24.762;2023-07-16T05:12:31;100071.97;;;27.11;67.92
28630;BME280;15817;42.130;24.762;2023-07-16T07:51:56;100043.31;;;28.27;58.17
28630;BME280;15817;42.130;24.762;2023-07-16T09:10:36;100022.69;;;33.54;46.79
28630;BME280;15817;42.130;24.762;2023-07-16T09:13:50;100006.31;;;33.70;46.76
28630;BME280;15817;42.130;24.762;2023-07-16T09:20:08;100011.69;;;34.27;45.58
28630;BME280;15817;42.130;24.762;2023-07-16T09:22:57;100013.84;;;34.23;44.97
28630;BME280;15817;42.130;24.762;2023-07-16T09:29:24;100028.41;;;34.61;44.61
28630;BME280;15817;42.130;24.762;2023-07-16T09:32:46;100011.19;;;34.67;45.11
28630;BME280;15817;42.130;24.762;2023-07-16T09:36:05;100014.81;;;34.67;44.47
28630;BME280;15817;42.130;24.762;2023-07-16T09:38:56;99997.53;;;34.83;47.57
28630;BME280;15817;42.130;24.762;2023-07-16T09:41:25;99992.81;;;35.01;45.15
28630;BME280;15817;42.130;24.762;2023-07-16T09:43:57;99996.34;;;35.37;52.41
28630;BME280;15817;42.130;24.762;2023-07-16T09:46:31;99990.13;;;35.35;44.83
28630;BME280;15817;42.130;24.762;2023-07-16T09:49:32;99989.06;;;35.28;43.69
28630;BME280;15817;42.130;24.762;2023-07-16T09:52:37;99981.19;;;35.49;43.78
28630;BME280;15817;42.130;24.762;2023-07-16T09:55:35;99977.88;;;35.80;45.02
28630;BME280;15817;42.130;24.762;2023-07-16T09:58:13;99969.94;;;35.85;42.50
28630;BME280;15817;42.130;24.762;2023-07-16T10:04:36;99967.56;;;36.06;41.31
28630;BME280;15817;42.130;24.762;2023-07-16T10:07:48;99964.63;;;36.16;41.01
28630;BME280;15817;42.130;24.762;2023-07-16T10:10:15;99960.66;;;36.18;40.78
28630;BME280;15817;42.130;24.762;2023-07-16T10:13:15;99965.56;;;36.41;41.00
28630;BME280;15817;42.130;24.762;2023-07-16T10:15:55;99953.09;;;36.53;40.61
28630;BME280;15817;42.130;24.762;2023-07-16T10:18:31;99963.16;;;36.70;40.67
28630;BME280;15817;42.130;24.762;2023-07-16T10:21:28;99960.19;;;36.63;40.79
28630;BME280;15817;42.130;24.762;2023-07-16T10:24:03;99950.84;;;36.56;40.37
28630;BME280;15817;42.130;24.762;2023-07-16T10:37:54;99939.56;;;36.82;39.55
28630;BME280;15817;42.130;24.762;2023-07-16T10:40:41;99934.22;;;36.81;39.59
28630;BME280;15817;42.130;24.762;2023-07-16T10:43:14;99929.34;;;36.67;39.75
28630;BME280;15817;42.130;24.762;2023-07-16T10:49:09;99920.50;;;36.63;39.48
28630;BME280;15817;42.130;24.762;2023-07-16T10:58:45;99919.22;;;37.06;39.33
28630;BME280;15817;42.130;24.762;2023-07-16T11:01:35;99909.00;;;37.23;39.02
28630;BME280;15817;42.130;24.762;2023-07-16T11:04:37;99912.81;;;37.22;38.84
28630;BME280;15817;42.130;24.762;2023-07-16T11:07:43;99894.41;;;37.21;38.94
28630;BME280;15817;42.130;24.762;2023-07-16T11:10:32;99899.63;;;37.16;38.62
28630;BME280;15817;42.130;24.762;2023-07-16T11:13:59;99892.34;;;37.23;38.71
28630;BME280;15817;42.130;24.762;2023-07-16T11:16:41;99888.00;;;37.12;38.81
28630;BME280;15817;42.130;24.762;2023-07-16T11:19:50;99877.25;;;37.25;38.27
28630;BME280;15817;42.130;24.762;2023-07-16T11:26:17;99877.03;;;37.35;38.46
28630;BME280;15817;42.130;24.762;2023-07-16T11:28:45;99879.63;;;37.28;38.60
28630;BME280;15817;42.130;24.762;2023-07-16T11:34:03;99876.25;;;37.49;38.59
28630;BME280;15817;42.130;24.762;2023-07-16T11:36:36;99879.22;;;37.48;38.20
28630;BME280;15817;42.130;24.762;2023-07-16T11:39:05;99869.16;;;37.47;38.34
28630;BME280;15817;42.130;24.762;2023-07-16T11:41:41;99865.97;;;37.27;38.99
28630;BME280;15817;42.130;24.762;2023-07-16T11:44:32;99866.16;;;37.25;38.94
28630;BME280;15817;42.130;24.762;2023-07-16T11:47:06;99868.75;;;37.27;38.91
28630;BME280;15817;42.130;24.762;2023-07-16T11:49:40;99856.69;;;37.43;38.80
28630;BME280;15817;42.130;24.762;2023-07-16T11:52:10;99862.00;;;37.52;38.43
28630;BME280;15817;42.130;24.762;2023-07-16T11:55:18;99856.94;;;37.56;38.21
28630;BME280;15817;42.130;24.762;2023-07-16T11:58:06;99851.06;;;37.51;38.51
28630;BME280;15817;42.130;24.762;2023-07-16T12:01:06;99850.78;;;37.46;38.66
28630;BME280;15817;42.130;24.762;2023-07-16T12:11:22;99848.50;;;37.49;38.90
28630;BME280;15817;42.130;24.762;2023-07-16T12:14:24;99861.09;;;37.60;38.44
28630;BME280;15817;42.130;24.762;2023-07-16T12:20:06;99850.34;;;37.57;39.31
28630;BME280;15817;42.130;24.762;2023-07-16T12:22:41;99834.13;;;37.46;39.69
28630;BME280;15817;42.130;24.762;2023-07-16T12:25:53;99837.88;;;37.53;39.41
28630;BME280;15817;42.130;24.762;2023-07-16T12:32:16;99834.41;;;37.51;38.47
28630;BME280;15817;42.130;24.762;2023-07-16T12:34:50;99832.56;;;37.43;38.86
28630;BME280;15817;42.130;24.762;2023-07-16T12:37:19;99838.00;;;37.28;38.62
28630;BME280;15817;42.130;24.762;2023-07-16T12:45:49;99828.13;;;37.34;38.51
28630;BME280;15817;42.130;24.762;2023-07-16T12:48:41;99827.75;;;37.37;38.28
28630;BME280;15817;42.130;24.762;2023-07-16T12:51:19;99840.59;;;37.38;38.38
28630;BME280;15817;42.130;24.762;2023-07-16T12:53:50;99823.44;;;37.34;38.68
28630;BME280;15817;42.130;24.762;2023-07-16T12:56:23;99827.38;;;37.40;37.85
28630;BME280;15817;42.130;24.762;2023-07-16T12:59:20;99822.56;;;37.34;37.26
28630;BME280;15817;42.130;24.762;2023-07-16T13:01:57;99814.75;;;37.38;37.13
28630;BME280;15817;42.130;24.762;2023-07-16T13:07:36;99814.53;;;37.39;37.95
28630;BME280;15817;42.130;24.762;2023-07-16T13:10:37;99808.94;;;37.16;38.51
28630;BME280;15817;42.130;24.762;2023-07-16T13:13:28;99807.53;;;37.20;38.45
28630;BME280;15817;42.130;24.762;2023-07-16T13:16:13;99804.59;;;37.22;38.15
28630;BME280;15817;42.130;24.762;2023-07-16T13:22:09;99789.34;;;37.18;37.85
28630;BME280;15817;42.130;24.762;2023-07-16T13:24:57;99794.41;;;37.06;37.82
28630;BME280;15817;42.130;24.762;2023-07-16T13:28:06;99789.53;;;37.08;37.78
28630;BME280;15817;42.130;24.762;2023-07-16T13:30:42;99796.28;;;37.14;37.29
28630;BME280;15817;42.130;24.762;2023-07-16T13:33:43;99794.19;;;37.16;38.08
28630;BME280;15817;42.130;24.762;2023-07-16T13:36:19;99792.66;;;37.13;37.26
28630;BME280;15817;42.130;24.762;2023-07-16T13:43:04;99790.41;;;37.09;37.26
28630;BME280;15817;42.130;24.762;2023-07-16T13:45:40;99785.44;;;36.96;37.08
28630;BME280;15817;42.130;24.762;2023-07-16T13:48:30;99780.22;;;37.01;37.35
28630;BME280;15817;42.130;24.762;2023-07-16T13:51:09;99786.13;;;36.98;37.20
28630;BME280;15817;42.130;24.762;2023-07-16T13:53:35;99773.47;;;36.95;37.30
28630;BME280;15817;42.130;24.762;2023-07-16T13:56:14;99774.00;;;36.99;36.95
28630;BME280;15817;42.130;24.762;2023-07-16T13:58:43;99765.16;;;36.95;36.88
28630;BME280;15817;42.130;24.762;2023-07-16T14:01:22;99776.59;;;36.92;36.64
28630;BME280;15817;42.130;24.762;2023-07-16T14:03:57;99763.69;;;36.77;36.41
28630;BME280;15817;42.130;24.762;2023-07-16T14:06:42;99762.50;;;36.71;37.51
28630;BME280;15817;42.130;24.762;2023-07-16T14:09:17;99766.31;;;36.70;37.75
28630;BME280;15817;42.130;24.762;2023-07-16T14:11:58;99763.19;;;36.73;37.87
28630;BME280;15817;42.130;24.762;2023-07-16T14:14:32;99760.78;;;36.62;37.52
28630;BME280;15817;42.130;24.762;2023-07-16T14:17:10;99760.59;;;36.63;37.69
28630;BME280;15817;42.130;24.762;2023-07-16T14:19:46;99757.47;;;36.58;37.98
28630;BME280;15817;42.130;24.762;2023-07-16T14:22:14;99752.16;;;36.57;38.23
28630;BME280;15817;42.130;24.762;2023-07-16T14:24:43;99750.91;;;36.59;37.52
28630;BME280;15817;42.130;24.762;2023-07-16T14:27:11;99752.16;;;36.49;38.04
28630;BME280;15817;42.130;24.762;2023-07-16T14:30:06;99749.63;;;36.31;38.00
28630;BME280;15817;42.130;24.762;2023-07-16T14:32:34;99750.47;;;36.23;37.92
28630;BME280;15817;42.130;24.762;2023-07-16T14:35:00;99740.44;;;36.31;37.92
28630;BME280;15817;42.130;24.762;2023-07-16T14:37:29;99743.53;;;36.36;37.85
28630;BME280;15817;42.130;24.762;2023-07-16T14:39:56;99740.28;;;36.32;38.08
28630;BME280;15817;42.130;24.762;2023-07-16T14:42:25;99743.91;;;36.33;37.80
28630;BME280;15817;42.130;24.762;2023-07-16T14:45:03;99743.03;;;36.24;37.61
28630;BME280;15817;42.130;24.762;2023-07-16T14:47:45;99734.41;;;36.11;37.53
28630;BME280;15817;42.130;24.762;2023-07-16T14:50:48;99743.41;;;36.05;37.06
28630;BME280;15817;42.130;24.762;2023-07-16T14:53:38;99734.91;;;36.06;37.72
28630;BME280;15817;42.130;24.762;2023-07-16T14:56:22;99726.78;;;36.05;37.69
28630;BME280;15817;42.130;24.762;2023-07-16T14:59:14;99735.81;;;35.99;37.48
28630;BME280;15817;42.130;24.762;2023-07-16T15:01:53;99740.66;;;35.97;37.62
28630;BME280;15817;42.130;24.762;2023-07-16T15:04:22;99732.84;;;35.92;37.73
28630;BME280;15817;42.130;24.762;2023-07-16T15:06:50;99735.13;;;35.80;37.56
28630;BME280;15817;42.130;24.762;2023-07-16T15:09:35;99736.84;;;35.73;37.58
28630;BME280;15817;42.130;24.762;2023-07-16T15:12:35;99725.75;;;35.73;37.65
28630;BME280;15817;42.130;24.762;2023-07-16T15:15:09;99739.47;;;35.75;37.29
28630;BME280;15817;42.130;24.762;2023-07-16T15:17:46;99733.88;;;35.67;37.47
28630;BME280;15817;42.130;24.762;2023-07-16T15:20:21;99725.06;;;35.63;37.16
28630;BME280;15817;42.130;24.762;2023-07-16T15:26:25;99731.63;;;35.46;36.64
28630;BME280;15817;42.130;24.762;2023-07-16T15:28:53;99737.84;;;35.48;36.98
28630;BME280;15817;42.130;24.762;2023-07-16T15:31:28;99732.31;;;35.40;37.34
28630;BME280;15817;42.130;24.762;2023-07-16T15:33:55;99725.06;;;35.31;37.23
28630;BME280;15817;42.130;24.762;2023-07-16T15:43:38;99731.09;;;35.34;37.17
28630;BME280;15817;42.130;24.762;2023-07-16T15:46:04;99727.63;;;35.32;36.55
28630;BME280;15817;42.130;24.762;2023-07-16T15:48:35;99718.13;;;35.27;36.86
28630;BME280;15817;42.130;24.762;2023-07-16T15:51:19;99717.91;;;35.20;37.08
28630;BME280;15817;42.130;24.762;2023-07-16T15:53:52;99726.38;;;35.18;36.62
28630;BME280;15817;42.130;24.762;2023-07-16T15:56:33;99713.56;;;35.09;37.17
28630;BME280;15817;42.130;24.762;2023-07-16T15:59:03;99727.75;;;35.14;37.19
28630;BME280;15817;42.130;24.762;2023-07-16T16:01:32;99712.50;;;34.94;36.72
28630;BME280;15817;42.130;24.762;2023-07-16T16:04:04;99722.53;;;34.95;37.25
28630;BME280;15817;42.130;24.762;2023-07-16T16:06:36;99725.31;;;34.95;36.82
28630;BME280;15817;42.130;24.762;2023-07-16T16:09:16;99729.91;;;34.86;36.27
28630;BME280;15817;42.130;24.762;2023-07-16T16:16:13;99743.94;;;34.93;37.25
28630;BME280;15817;42.130;24.762;2023-07-16T16:58:41;99750.94;;;34.37;37.13
28630;BME280;15817;42.130;24.762;2023-07-16T17:01:12;99753.34;;;34.40;37.73
28630;BME280;15817;42.130;24.762;2023-07-16T17:03:40;99748.50;;;34.34;37.46
28630;BME280;15817;42.130;24.762;2023-07-16T17:06:08;99750.22;;;34.35;37.76
28630;BME280;15817;42.130;24.762;2023-07-16T17:08:37;99759.31;;;34.28;37.71
28630;BME280;15817;42.130;24.762;2023-07-16T17:11:03;99757.97;;;34.32;37.86
28630;BME280;15817;42.130;24.762;2023-07-16T17:13:31;99757.09;;;34.31;37.71
28630;BME280;15817;42.130;24.762;2023-07-16T17:15:57;99762.78;;;34.30;38.15
28630;BME280;15817;42.130;24.762;2023-07-16T17:18:26;99765.69;;;34.28;38.91
28630;BME280;15817;42.130;24.762;2023-07-16T17:20:57;99768.66;;;34.27;38.81
28630;BME280;15817;42.130;24.762;2023-07-16T17:23:23;99765.31;;;34.23;39.13
28630;BME280;15817;42.130;24.762;2023-07-16T17:26:15;99766.50;;;34.21;38.65
28630;BME280;15817;42.130;24.762;2023-07-16T17:28:57;99773.56;;;34.15;38.78
28630;BME280;15817;42.130;24.762;2023-07-16T17:31:28;99769.22;;;34.12;38.80
28630;BME280;15817;42.130;24.762;2023-07-16T17:33:55;99773.31;;;34.08;38.92
28630;BME280;15817;42.130;24.762;2023-07-16T17:36:24;99768.09;;;34.05;39.21
28630;BME280;15817;42.130;24.762;2023-07-16T17:38:55;99772.06;;;34.03;39.70
28630;BME280;15817;42.130;24.762;2023-07-16T17:41:35;99771.38;;;34.01;39.40
28630;BME280;15817;42.130;24.762;2023-07-16T17:44:18;99780.13;;;33.96;39.50
28630;BME280;15817;42.130;24.762;2023-07-16T17:46:52;99783.75;;;33.97;39.61
28630;BME280;15817;42.130;24.762;2023-07-16T17:49:41;99783.38;;;33.92;39.48
28630;BME280;15817;42.130;24.762;2023-07-16T17:52:10;99776.75;;;33.85;39.82
28630;BME280;15817;42.130;24.762;2023-07-16T17:54:42;99775.66;;;33.77;39.80
28630;BME280;15817;42.130;24.762;2023-07-16T17:57:22;99783.94;;;33.77;40.08
28630;BME280;15817;42.130;24.762;2023-07-16T17:59:50;99779.66;;;33.65;39.89
28630;BME280;15817;42.130;24.762;2023-07-16T18:02:25;99784.31;;;33.65;40.02
28630;BME280;15817;42.130;24.762;2023-07-16T18:05:02;99775.16;;;33.64;40.14
28630;BME280;15817;42.130;24.762;2023-07-16T18:10:52;99790.63;;;33.57;40.16
28630;BME280;15817;42.130;24.762;2023-07-16T18:13:43;99798.66;;;33.51;40.26
28630;BME280;15817;42.130;24.762;2023-07-16T18:16:19;99810.41;;;33.53;40.92
28630;BME280;15817;42.130;24.762;2023-07-16T18:18:56;99804.25;;;33.41;40.87
28630;BME280;15817;42.130;24.762;2023-07-16T18:21:37;99802.38;;;33.41;41.07
28630;BME280;15817;42.130;24.762;2023-07-16T18:24:15;99795.41;;;33.37;41.29
28630;BME280;15817;42.130;24.762;2023-07-16T18:26:58;99800.56;;;33.32;41.41
28630;BME280;15817;42.130;24.762;2023-07-16T18:29:40;99801.00;;;33.28;41.54
28630;BME280;15817;42.130;24.762;2023-07-16T18:39:15;99811.19;;;33.18;42.09
28630;BME280;15817;42.130;24.762;2023-07-16T18:45:21;99806.63;;;33.08;41.84
28630;BME280;15817;42.130;24.762;2023-07-16T18:48:20;99814.75;;;33.10;42.17
28630;BME280;15817;42.130;24.762;2023-07-16T18:51:22;99810.84;;;33.03;41.87
28630;BME280;15817;42.130;24.762;2023-07-16T18:54:13;99814.09;;;32.98;42.31
28630;BME280;15817;42.130;24.762;2023-07-16T18:56:53;99821.63;;;32.96;42.26
28630;BME280;15817;42.130;24.762;2023-07-16T19:03:58;99822.22;;;32.90;42.36
28630;BME280;15817;42.130;24.762;2023-07-16T19:14:01;99824.94;;;32.72;42.77
28630;BME280;15817;42.130;24.762;2023-07-16T19:21:08;99822.72;;;32.66;43.50
28630;BME280;15817;42.130;24.762;2023-07-16T20:04:11;99879.81;;;31.89;45.56
28630;BME280;15817;42.130;24.762;2023-07-16T20:07:19;99873.59;;;31.77;44.85
28630;BME280;15817;42.130;24.762;2023-07-16T20:10:32;99875.59;;;31.75;44.42
28630;BME280;15817;42.130;24.762;2023-07-16T20:13:21;99879.22;;;31.66;43.83
28630;BME280;15817;42.130;24.762;2023-07-16T20:16:21;99886.84;;;31.62;43.81
28630;BME280;15817;42.130;24.762;2023-07-16T20:19:07;99881.94;;;31.56;44.24
28630;BME280;15817;42.130;24.762;2023-07-16T20:21:33;99883.81;;;31.56;44.62
28630;BME280;15817;42.130;24.762;2023-07-16T20:24:52;99885.09;;;31.52;44.21
28630;BME280;15817;42.130;24.762;2023-07-16T20:27:18;99888.28;;;31.47;44.22
28630;BME280;15817;42.130;24.762;2023-07-16T20:30:01;99889.72;;;31.51;44.17
28630;BME280;15817;42.130;24.762;2023-07-16T20:32:29;99904.94;;;31.46;43.25
28630;BME280;15817;42.130;24.762;2023-07-16T20:35:06;99906.19;;;31.32;43.08
28630;BME280;15817;42.130;24.762;2023-07-16T20:37:33;99899.22;;;31.28;43.25
28630;BME280;15817;42.130;24.762;2023-07-16T20:39:59;99900.06;;;31.19;43.45
28630;BME280;15817;42.130;24.762;2023-07-16T20:42:33;99908.31;;;31.19;43.20
28630;BME280;15817;42.130;24.762;2023-07-16T20:45:19;99896.94;;;31.03;43.83
28630;BME280;15817;42.130;24.762;2023-07-16T20:47:53;99905.88;;;30.95;43.97
28630;BME280;15817;42.130;24.762;2023-07-16T20:50:21;99906.00;;;30.93;43.65
28630;BME280;15817;42.130;24.762;2023-07-16T20:52:56;99915.97;;;30.94;43.94
28630;BME280;15817;42.130;24.762;2023-07-16T20:55:46;99921.19;;;30.88;43.52
28630;BME280;15817;42.130;24.762;2023-07-16T20:58:35;99926.41;;;30.91;43.37
28630;BME280;15817;42.130;24.762;2023-07-16T21:01:11;99938.84;;;30.95;43.29
28630;BME280;15817;42.130;24.762;2023-07-16T21:03:45;99939.66;;;30.86;43.15
28630;BME280;15817;42.130;24.762;2023-07-16T21:06:18;99946.63;;;30.90;42.77
28630;BME280;15817;42.130;24.762;2023-07-16T21:08:47;99937.13;;;30.73;42.51
28630;BME280;15817;42.130;24.762;2023-07-16T21:11:13;99939.69;;;30.65;43.11
28630;BME280;15817;42.130;24.762;2023-07-16T21:13:41;99946.06;;;30.66;42.64
28630;BME280;15817;42.130;24.762;2023-07-16T21:16:07;99947.44;;;30.60;42.43
28630;BME280;15817;42.130;24.762;2023-07-16T21:18:35;99945.72;;;30.59;42.33
28630;BME280;15817;42.130;24.762;2023-07-16T21:21:06;99943.38;;;30.54;42.29
28630;BME280;15817;42.130;24.762;2023-07-16T21:23:32;99944.00;;;30.47;41.85
28630;BME280;15817;42.130;24.762;2023-07-16T21:26:03;99951.38;;;30.46;41.83
28630;BME280;15817;42.130;24.762;2023-07-16T21:28:29;99955.84;;;30.47;41.83
28630;BME280;15817;42.130;24.762;2023-07-16T21:30:55;99950.66;;;30.44;41.83
28630;BME280;15817;42.130;24.762;2023-07-16T21:33:21;99958.22;;;30.52;41.91
28630;BME280;15817;42.130;24.762;2023-07-16T21:35:46;99972.31;;;30.47;41.94
28630;BME280;15817;42.130;24.762;2023-07-16T21:38:17;99962.91;;;30.40;42.14
28630;BME280;15817;42.130;24.762;2023-07-16T21:40:51;99962.28;;;30.37;41.86
28630;BME280;15817;42.130;24.762;2023-07-16T21:43:22;99965.03;;;30.37;42.23
28630;BME280;15817;42.130;24.762;2023-07-16T21:45:48;99971.06;;;30.31;42.26
28630;BME280;15817;42.130;24.762;2023-07-16T21:48:14;99969.69;;;30.25;42.50
28630;BME280;15817;42.130;24.762;2023-07-16T21:50:43;99965.75;;;30.18;42.28
28630;BME280;15817;42.130;24.762;2023-07-16T21:53:15;99977.94;;;30.25;42.07
28630;BME280;15817;42.130;24.762;2023-07-16T21:55:41;99974.03;;;30.07;42.40
28630;BME280;15817;42.130;24.762;2023-07-16T21:58:07;99978.31;;;30.00;42.12
28630;BME280;15817;42.130;24.762;2023-07-16T22:00:33;99979.03;;;30.02;42.03
28630;BME280;15817;42.130;24.762;2023-07-16T22:02:59;99988.75;;;30.06;41.88
28630;BME280;15817;42.130;24.762;2023-07-16T22:05:34;99984.38;;;30.03;42.06
28630;BME280;15817;42.130;24.762;2023-07-16T22:08:02;99989.75;;;29.94;42.19
28630;BME280;15817;42.130;24.762;2023-07-16T22:10:28;99990.75;;;29.93;41.93
28630;BME280;15817;42.130;24.762;2023-07-16T22:12:54;99990.66;;;29.83;41.80
28630;BME280;15817;42.130;24.762;2023-07-16T22:15:20;99993.41;;;29.72;42.31
28630;BME280;15817;42.130;24.762;2023-07-16T22:17:49;99986.59;;;29.55;41.46
28630;BME280;15817;42.130;24.762;2023-07-16T22:20:15;99990.47;;;29.64;42.04
28630;BME280;15817;42.130;24.762;2023-07-16T22:22:42;99991.03;;;29.67;41.86
28630;BME280;15817;42.130;24.762;2023-07-16T22:25:11;99995.16;;;29.73;42.01
28630;BME280;15817;42.130;24.762;2023-07-16T22:27:37;99999.03;;;29.70;41.55
28630;BME280;15817;42.130;24.762;2023-07-16T22:30:03;99994.28;;;29.72;41.84
28630;BME280;15817;42.130;24.762;2023-07-16T22:32:29;99998.94;;;29.61;41.67
28630;BME280;15817;42.130;24.762;2023-07-16T22:34:55;100004.41;;;29.61;41.73
28630;BME280;15817;42.130;24.762;2023-07-16T22:37:23;100001.44;;;29.52;41.62
28630;BME280;15817;42.130;24.762;2023-07-16T22:39:52;100014.88;;;29.56;42.03
28630;BME280;15817;42.130;24.762;2023-07-16T22:42:20;100019.88;;;29.50;41.65
28630;BME280;15817;42.130;24.762;2023-07-16T22:44:47;100025.09;;;29.42;41.96
28630;BME280;15817;42.130;24.762;2023-07-16T22:47:13;100025.38;;;29.39;41.65
28630;BME280;15817;42.130;24.762;2023-07-16T22:49:41;100029.31;;;29.24;41.88
28630;BME280;15817;42.130;24.762;2023-07-16T22:52:10;100024.94;;;29.22;42.07
28630;BME280;15817;42.130;24.762;2023-07-16T22:54:38;100028.44;;;29.24;41.89
28630;BME280;15817;42.130;24.762;2023-07-16T22:57:08;100028.94;;;29.29;41.82
28630;BME280;15817;42.130;24.762;2023-07-16T22:59:34;100023.28;;;29.08;42.33
28630;BME280;15817;42.130;24.762;2023-07-16T23:02:00;100021.41;;;28.86;42.51
28630;BME280;15817;42.130;24.762;2023-07-16T23:04:26;100032.66;;;28.94;42.63
28630;BME280;15817;42.130;24.762;2023-07-16T23:06:55;100026.03;;;28.97;42.78
28630;BME280;15817;42.130;24.762;2023-07-16T23:09:22;100030.03;;;28.93;42.57
28630;BME280;15817;42.130;24.762;2023-07-16T23:11:47;100034.63;;;28.92;42.58
28630;BME280;15817;42.130;24.762;2023-07-16T23:14:35;100035.00;;;28.99;42.63
28630;BME280;15817;42.130;24.762;2023-07-16T23:17:15;100040.13;;;29.03;42.50